createdAt,value
2022-10-18T00:01:09.776Z,13.40
2022-10-18T00:03:39.151Z,13.90
2022-10-18T00:06:09.256Z,12.97
2022-10-18T00:08:39.744Z,12.83
2022-10-18T00:11:08.516Z,13.73
2022-10-18T00:13:37.722Z,12.70
2022-10-18T00:16:11.858Z,12.93
2022-10-18T00:18:40.906Z,11.93
2022-10-18T00:21:12.114Z,12.20
2022-10-18T00:23:41.976Z,12.13
2022-10-18T00:26:12.799Z,12.43
2022-10-18T00:28:41.707Z,11.87
2022-10-18T00:31:16.347Z,11.60
2022-10-18T00:33:46.473Z,11.50
2022-10-18T00:36:15.709Z,10.67
2022-10-18T00:38:47.030Z,11.13
2022-10-18T00:41:19.299Z,11.67
2022-10-18T00:43:55.912Z,12.37
2022-10-18T00:46:25.085Z,12.27
2022-10-18T00:51:25.541Z,11.90
2022-10-18T00:53:55.382Z,12.47
2022-10-18T00:56:24.033Z,12.43
2022-10-18T00:58:53.007Z,12.37
2022-10-18T01:01:24.465Z,12.13
2022-10-18T01:03:57.037Z,12.37
2022-10-18T01:06:26.122Z,11.63
2022-10-18T01:09:06.403Z,11.73
2022-10-18T01:11:55.756Z,11.50
2022-10-18T01:14:36.097Z,11.73
2022-10-18T01:17:13.173Z,11.37
2022-10-18T01:20:03.818Z,11.60
2022-10-18T01:22:37.465Z,11.47
2022-10-18T01:25:21.214Z,11.77
2022-10-18T01:27:56.836Z,12.17
2022-10-18T01:30:47.555Z,12.27
2022-10-18T01:33:26.703Z,11.93
2022-10-18T01:36:01.447Z,11.30
2022-10-18T01:38:32.751Z,11.90
2022-10-18T01:41:03.996Z,11.93
2022-10-18T01:43:33.897Z,12.13
2022-10-18T01:46:07.869Z,13.50
2022-10-18T01:48:38.040Z,13.00
2022-10-18T01:51:07.476Z,12.23
2022-10-18T01:53:36.429Z,12.80
2022-10-18T01:56:25.579Z,12.17
2022-10-18T01:59:11.762Z,11.53
2022-10-18T02:01:52.947Z,12.40
2022-10-18T02:04:29.358Z,12.33
2022-10-18T02:07:05.014Z,11.63
2022-10-18T02:09:39.840Z,12.30
2022-10-18T02:12:13.174Z,12.33
2022-10-18T02:14:43.038Z,12.37
2022-10-18T02:17:15.647Z,11.73
2022-10-18T02:19:47.549Z,12.20
2022-10-18T02:22:17.380Z,12.30
2022-10-18T02:24:49.504Z,10.40
2022-10-18T02:27:18.013Z,10.37
2022-10-18T02:29:47.061Z,11.00
2022-10-18T02:32:22.047Z,10.23
2022-10-18T02:34:58.274Z,10.53
2022-10-18T02:37:32.015Z,10.17
2022-10-18T02:40:04.181Z,11.00
2022-10-18T02:42:35.779Z,10.47
2022-10-18T02:45:04.715Z,10.87
2022-10-18T02:47:35.130Z,11.10
2022-10-18T02:50:03.490Z,11.57
2022-10-18T02:52:32.024Z,11.43
2022-10-18T02:55:01.334Z,11.80
2022-10-18T02:57:30.482Z,12.20
2022-10-18T02:59:59.254Z,11.83
2022-10-18T03:02:28.137Z,11.63
2022-10-18T03:04:58.593Z,11.47
2022-10-18T03:07:28.391Z,11.73
2022-10-18T03:09:56.872Z,11.70
2022-10-18T03:12:25.490Z,12.67
2022-10-18T03:14:53.838Z,12.67
2022-10-18T03:17:22.157Z,11.93
2022-10-18T03:19:50.458Z,13.40
2022-10-18T03:22:20.477Z,13.50
2022-10-18T03:24:49.459Z,13.23
2022-10-18T03:27:17.824Z,11.80
2022-10-18T03:29:46.173Z,11.93
2022-10-18T03:32:14.994Z,12.00
2022-10-18T03:34:43.320Z,12.20
2022-10-18T03:37:11.699Z,12.10
2022-10-18T03:39:41.441Z,12.00
2022-10-18T03:42:09.765Z,11.40
2022-10-18T03:44:37.975Z,11.57
2022-10-18T03:47:06.375Z,12.40
2022-10-18T03:49:35.512Z,11.70
2022-10-18T03:52:03.750Z,11.53
2022-10-18T03:54:32.094Z,11.30
2022-10-18T03:57:02.331Z,11.40
2022-10-18T03:59:30.649Z,10.33
2022-10-18T04:01:59.035Z,10.27
2022-10-18T04:04:27.454Z,10.20
2022-10-18T04:06:55.997Z,10.10
2022-10-18T04:09:24.286Z,10.03
2022-10-18T04:11:52.928Z,10.07
2022-10-18T04:14:22.639Z,9.47
2022-10-18T04:16:50.920Z,10.07
2022-10-18T04:19:19.813Z,9.77
2022-10-18T04:21:48.194Z,10.00
2022-10-18T04:24:18.036Z,9.87
2022-10-18T04:26:46.527Z,10.33
2022-10-18T04:29:14.864Z,10.77
2022-10-18T04:31:44.562Z,10.37
2022-10-18T04:34:13.006Z,10.17
2022-10-18T04:36:41.349Z,9.97
2022-10-18T04:39:09.661Z,9.33
2022-10-18T04:41:38.157Z,9.77
2022-10-18T04:44:06.520Z,9.40
2022-10-18T04:46:35.122Z,9.30
2022-10-18T04:49:05.146Z,9.00
2022-10-18T04:51:33.587Z,8.83
2022-10-18T04:54:01.962Z,8.20
2022-10-18T04:56:30.230Z,8.70
2022-10-18T04:58:59.621Z,8.27
2022-10-18T05:01:28.217Z,8.30
2022-10-18T05:03:57.335Z,8.83
2022-10-18T05:06:27.115Z,8.43
2022-10-18T05:08:55.497Z,8.70
2022-10-18T05:11:23.941Z,8.53
2022-10-18T05:13:52.546Z,8.30
2022-10-18T05:16:20.947Z,9.00
2022-10-18T05:18:49.335Z,8.30
2022-10-18T05:21:18.117Z,8.30
2022-10-18T05:23:47.941Z,8.47
2022-10-18T05:26:16.175Z,8.50
2022-10-18T05:28:44.370Z,8.77
2022-10-18T05:31:12.765Z,8.57
2022-10-18T05:33:41.133Z,8.40
2022-10-18T05:36:10.106Z,9.20
2022-10-18T05:38:41.944Z,9.03
2022-10-18T05:41:12.437Z,8.40
2022-10-18T05:43:41.327Z,8.20
2022-10-18T05:46:36.742Z,8.20
2022-10-18T05:49:04.895Z,7.77
2022-10-18T05:51:33.131Z,7.90
2022-10-18T05:54:01.370Z,7.67
2022-10-18T05:56:31.116Z,8.07
2022-10-18T05:58:59.366Z,8.20
2022-10-18T06:01:27.530Z,7.80
2022-10-18T06:03:55.700Z,7.70
2022-10-18T06:06:23.900Z,7.97
2022-10-18T06:08:53.180Z,7.60
2022-10-18T06:11:22.052Z,7.70
2022-10-18T06:13:53.230Z,7.97
2022-10-18T06:16:47.828Z,7.43
2022-10-18T06:19:16.170Z,7.87
2022-10-18T06:21:44.646Z,8.03
2022-10-18T06:24:12.947Z,8.00
2022-10-18T06:26:41.238Z,7.77
2022-10-18T06:29:11.365Z,7.97
2022-10-18T06:31:39.765Z,8.33
2022-10-18T06:34:08.036Z,8.00
2022-10-18T06:36:36.332Z,7.97
2022-10-18T06:39:04.859Z,8.00
2022-10-18T06:41:33.161Z,7.63
2022-10-18T06:44:21.529Z,7.53
2022-10-18T06:46:51.582Z,7.70
2022-10-18T06:49:20.157Z,7.57
2022-10-18T06:51:48.510Z,7.20
2022-10-18T06:54:18.811Z,7.70
2022-10-18T06:56:47.825Z,7.00
2022-10-18T06:59:16.210Z,7.43
2022-10-18T07:01:46.065Z,7.37
2022-10-18T07:04:14.617Z,7.60
2022-10-18T07:06:42.926Z,7.97
2022-10-18T07:09:11.469Z,7.53
2022-10-18T07:11:39.768Z,7.03
2022-10-18T07:14:08.793Z,7.40
2022-10-18T07:16:37.916Z,7.60
2022-10-18T07:19:07.685Z,7.23
2022-10-18T07:21:35.987Z,8.37
2022-10-18T07:24:04.483Z,7.68
2022-10-18T07:26:34.722Z,8.00
2022-10-18T07:29:07.602Z,8.27
2022-10-18T07:31:36.555Z,8.60
2022-10-18T07:34:07.719Z,8.20
2022-10-18T07:36:36.061Z,8.00
2022-10-18T07:39:04.870Z,8.17
2022-10-18T07:41:34.271Z,7.93
2022-10-18T07:44:03.066Z,8.17
2022-10-18T07:46:31.346Z,8.70
2022-10-18T07:48:59.594Z,8.57
2022-10-18T07:51:30.938Z,8.90
2022-10-18T07:53:59.213Z,9.07
2022-10-18T07:56:27.425Z,7.82
2022-10-18T07:58:57.359Z,8.20
2022-10-18T08:01:26.325Z,7.80
2022-10-18T08:03:55.322Z,7.73
2022-10-18T08:06:24.213Z,7.75
2022-10-18T08:08:53.797Z,7.68
2022-10-18T08:11:24.271Z,7.00
2022-10-18T08:13:53.015Z,7.03
2022-10-18T08:16:23.723Z,6.82
2022-10-18T08:18:52.157Z,7.13
2022-10-18T08:21:22.081Z,7.30
2022-10-18T08:23:50.610Z,7.15
2022-10-18T08:26:22.390Z,6.97
2022-10-18T08:29:10.436Z,6.07
2022-10-18T08:31:39.619Z,6.78
2022-10-18T08:34:07.904Z,6.53
2022-10-18T08:36:36.081Z,6.53
2022-10-18T08:39:04.585Z,6.47
2022-10-18T08:42:11.736Z,6.57
2022-10-18T08:44:45.757Z,6.43
2022-10-18T08:47:17.944Z,6.28
2022-10-18T08:49:50.341Z,6.20
2022-10-18T08:52:27.257Z,6.32
2022-10-18T08:55:02.087Z,6.45
2022-10-18T08:57:33.210Z,5.68
2022-10-18T09:00:03.567Z,6.50
2022-10-18T09:02:41.278Z,5.90
2022-10-18T09:05:23.693Z,6.30
2022-10-18T09:08:17.826Z,5.90
2022-10-18T09:10:54.603Z,5.63
2022-10-18T09:13:57.285Z,5.78
2022-10-18T09:16:31.870Z,5.68
2022-10-18T09:19:08.422Z,5.63
2022-10-18T09:21:47.559Z,5.57
2022-10-18T09:24:23.176Z,5.60
2022-10-18T09:26:58.184Z,5.15
2022-10-18T09:29:45.294Z,5.30
2022-10-18T09:32:26.609Z,5.32
2022-10-18T09:34:58.459Z,5.28
2022-10-18T09:37:29.449Z,4.93
2022-10-18T09:40:05.079Z,5.20
2022-10-18T09:42:38.817Z,4.97
2022-10-18T09:45:17.790Z,5.35
2022-10-18T09:47:49.788Z,4.53
2022-10-18T09:50:26.538Z,4.97
2022-10-18T09:53:00.675Z,5.38
2022-10-18T09:55:35.077Z,5.40
2022-10-18T09:58:06.971Z,4.90
2022-10-18T10:00:45.770Z,5.47
2022-10-18T10:03:14.984Z,5.40
2022-10-18T10:05:43.267Z,5.30
2022-10-18T10:08:11.793Z,5.07
2022-10-18T10:10:41.984Z,5.05
2022-10-18T10:13:17.286Z,4.95
2022-10-18T10:15:55.153Z,5.72
2022-10-18T10:18:25.860Z,4.60
2022-10-18T10:20:56.696Z,4.55
2022-10-18T10:23:28.280Z,4.60
2022-10-18T10:25:59.451Z,4.10
2022-10-18T10:28:31.505Z,4.10
2022-10-18T10:31:19.747Z,3.38
2022-10-18T10:33:49.089Z,3.40
2022-10-18T10:36:19.703Z,3.67
2022-10-18T10:39:03.019Z,3.65
2022-10-18T10:44:04.833Z,3.45
2022-10-18T10:46:37.924Z,3.97
2022-10-18T10:52:08.222Z,4.78
2022-10-18T10:54:51.227Z,3.38
2022-10-18T10:57:24.925Z,3.35
2022-10-18T10:59:55.789Z,3.60
2022-10-18T11:02:32.450Z,5.18
2022-10-18T11:05:24.505Z,3.75
2022-10-18T11:07:56.393Z,3.58
2022-10-18T11:10:29.341Z,3.85
2022-10-18T11:13:04.282Z,4.15
2022-10-18T11:15:36.962Z,5.30
2022-10-18T11:18:18.499Z,5.90
2022-10-18T11:20:51.434Z,6.03
2022-10-18T11:23:20.416Z,6.40
2022-10-18T11:26:04.114Z,6.30
2022-10-18T11:28:48.035Z,7.22
2022-10-18T11:31:19.794Z,7.75
2022-10-18T11:34:14.556Z,8.48
2022-10-18T11:36:57.885Z,8.45
2022-10-18T11:39:48.290Z,8.75
2022-10-18T11:42:21.655Z,8.75
2022-10-18T11:44:58.511Z,7.28
2022-10-18T11:47:36.930Z,7.88
2022-10-18T11:50:18.392Z,7.40
2022-10-18T11:52:56.157Z,7.20
2022-10-18T11:55:40.427Z,9.30
2022-10-18T11:58:24.016Z,8.13
2022-10-18T12:00:57.012Z,8.07
2022-10-18T12:03:43.264Z,7.18
2022-10-18T12:06:16.360Z,6.40
2022-10-18T12:08:49.171Z,7.13
2022-10-18T12:11:20.664Z,7.50
2022-10-18T12:13:52.265Z,6.60
2022-10-18T12:16:45.688Z,7.35
2022-10-18T12:19:23.435Z,6.53
2022-10-18T12:21:58.114Z,6.55
2022-10-18T12:24:29.687Z,5.38
2022-10-18T12:27:00.777Z,5.63
2022-10-18T12:29:34.147Z,5.53
2022-10-18T12:32:09.381Z,5.75
2022-10-18T12:34:44.558Z,5.78
2022-10-18T12:37:36.606Z,5.70
2022-10-18T12:40:11.479Z,5.50
2022-10-18T12:42:44.577Z,6.25
2022-10-18T12:45:30.204Z,5.40
2022-10-18T12:48:01.570Z,6.20
2022-10-18T12:50:34.766Z,6.32
2022-10-18T12:53:18.642Z,7.25
2022-10-18T12:55:49.034Z,6.70
2022-10-18T12:58:29.545Z,6.75
2022-10-18T13:01:03.466Z,6.18
2022-10-18T13:04:00.413Z,6.63
2022-10-18T13:07:07.940Z,6.25
2022-10-18T13:09:40.319Z,6.38
2022-10-18T13:12:41.989Z,6.53
2022-10-18T13:15:38.456Z,6.47
2022-10-18T13:18:19.626Z,6.20
2022-10-18T13:20:52.652Z,5.88
2022-10-18T13:23:38.841Z,5.13
2022-10-18T13:26:20.091Z,6.25
2022-10-18T13:28:56.542Z,5.28
2022-10-18T13:31:30.509Z,5.43
2022-10-18T13:34:18.751Z,5.65
2022-10-18T13:37:01.269Z,5.70
2022-10-18T13:39:30.797Z,6.00
2022-10-18T13:42:34.863Z,5.63
2022-10-18T13:45:40.696Z,5.40
2022-10-18T13:48:51.859Z,4.72
2022-10-18T13:51:46.750Z,4.47
2022-10-18T13:54:39.592Z,5.00
2022-10-18T13:57:39.928Z,4.75
2022-10-18T14:00:40.270Z,4.97
2022-10-18T14:03:56.280Z,4.20
2022-10-18T14:06:22.477Z,4.60
2022-10-18T14:08:58.929Z,4.25
2022-10-18T14:11:34.519Z,4.30
2022-10-18T14:14:13.967Z,3.95
2022-10-18T14:16:48.371Z,3.90
2022-10-18T14:19:21.988Z,4.07
2022-10-18T14:21:57.887Z,3.90
2022-10-18T14:24:27.721Z,3.88
2022-10-18T14:27:12.993Z,4.07
2022-10-18T14:29:43.066Z,3.88
2022-10-18T14:32:16.409Z,3.92
2022-10-18T14:34:45.508Z,4.10
2022-10-18T14:37:29.138Z,3.83
2022-10-18T14:39:57.515Z,3.88
2022-10-18T14:42:27.753Z,3.78
2022-10-18T14:45:21.634Z,3.50
2022-10-18T14:47:50.703Z,3.50
2022-10-18T14:50:23.603Z,3.33
2022-10-18T14:52:52.250Z,3.40
2022-10-18T14:55:25.557Z,3.35
2022-10-18T14:57:54.025Z,3.35
2022-10-18T15:00:27.168Z,3.70
2022-10-18T15:02:55.703Z,3.72
2022-10-18T15:05:27.344Z,3.38
2022-10-18T15:07:59.544Z,3.80
2022-10-18T15:10:31.299Z,3.45
2022-10-18T15:13:11.116Z,3.50
2022-10-18T15:15:41.955Z,4.20
2022-10-18T15:18:22.178Z,4.45
2022-10-18T15:21:08.850Z,4.50
2022-10-18T15:23:37.054Z,3.85
2022-10-18T15:26:08.177Z,3.92
2022-10-18T15:28:41.036Z,4.00
2022-10-18T15:31:24.058Z,3.80
2022-10-18T15:33:52.470Z,3.72
2022-10-18T15:36:28.212Z,4.15
2022-10-18T15:39:07.214Z,4.47
2022-10-18T15:41:41.712Z,4.40
2022-10-18T15:44:20.792Z,3.92
2022-10-18T15:46:52.862Z,4.28
2022-10-18T15:49:52.193Z,4.50
2022-10-18T15:52:38.145Z,4.70
2022-10-18T15:55:44.006Z,4.80
2022-10-18T15:58:16.992Z,4.38
2022-10-18T16:00:46.258Z,3.90
2022-10-18T16:03:16.910Z,4.03
2022-10-18T16:05:45.502Z,4.50
2022-10-18T16:08:22.512Z,3.75
2022-10-18T16:10:51.114Z,3.95
2022-10-18T16:13:19.783Z,4.10
2022-10-18T16:15:48.121Z,4.32
2022-10-18T16:18:20.242Z,4.00
2022-10-18T16:20:49.522Z,4.20
2022-10-18T16:23:20.355Z,3.80
2022-10-18T16:25:49.222Z,4.40
2022-10-18T16:28:19.336Z,4.50
2022-10-18T16:30:53.409Z,4.70
2022-10-18T16:33:23.421Z,4.93
2022-10-18T16:35:52.029Z,4.60
2022-10-18T16:38:25.693Z,4.68
2022-10-18T16:40:54.487Z,4.90
2022-10-18T16:43:23.018Z,4.70
2022-10-18T16:45:52.786Z,4.80
2022-10-18T16:48:25.247Z,5.38
2022-10-18T16:50:54.707Z,5.00
2022-10-18T16:53:24.998Z,5.13
2022-10-18T16:55:55.474Z,4.97
2022-10-18T17:00:52.290Z,5.68
2022-10-18T17:03:22.801Z,6.00
2022-10-18T17:05:51.090Z,5.28
2022-10-18T17:08:21.336Z,6.32
2022-10-18T17:10:52.872Z,5.43
2022-10-18T17:13:21.783Z,5.28
2022-10-18T17:15:50.650Z,6.50
2022-10-18T17:18:21.751Z,6.05
2022-10-18T17:20:51.742Z,6.00
2022-10-18T17:23:19.918Z,6.25
2022-10-18T17:26:04.660Z,6.10
2022-10-18T17:28:35.346Z,7.32
2022-10-18T17:31:03.620Z,6.57
2022-10-18T17:33:32.790Z,6.47
2022-10-18T17:36:02.373Z,6.57
2022-10-18T17:38:30.673Z,6.75
2022-10-18T17:40:59.317Z,7.10
2022-10-18T17:43:28.802Z,7.15
2022-10-18T17:45:57.531Z,7.10
2022-10-18T17:48:26.031Z,7.05
2022-10-18T17:50:54.156Z,7.30
2022-10-18T17:53:28.385Z,7.43
2022-10-18T17:56:02.434Z,7.53
2022-10-18T17:58:31.533Z,7.85
2022-10-18T18:01:09.126Z,7.90
2022-10-18T18:03:37.391Z,7.57
2022-10-18T18:06:14.217Z,6.10
2022-10-18T18:08:44.031Z,6.70
2022-10-18T18:11:12.228Z,6.55
2022-10-18T18:13:40.453Z,6.93
2022-10-18T18:16:14.088Z,7.28
2022-10-18T18:18:42.343Z,7.25
2022-10-18T18:21:10.509Z,7.45
2022-10-18T18:23:38.760Z,7.78
2022-10-18T18:26:08.635Z,7.55
2022-10-18T18:28:37.678Z,8.40
2022-10-18T18:31:09.785Z,8.45
2022-10-18T18:33:38.440Z,8.82
2022-10-18T18:36:07.670Z,9.30
2022-10-18T18:38:38.069Z,9.38
2022-10-18T18:41:10.469Z,10.23
2022-10-18T18:43:41.255Z,11.05
2022-10-18T18:46:10.233Z,12.05
2022-10-18T18:48:40.790Z,12.00
2022-10-18T18:51:12.978Z,12.00
2022-10-18T18:53:42.777Z,12.57
2022-10-18T18:56:14.869Z,11.65
2022-10-18T18:58:44.993Z,11.20
2022-10-18T19:01:17.227Z,12.27
2022-10-18T19:03:46.644Z,11.53
2022-10-18T19:06:18.786Z,13.77
2022-10-18T19:08:49.541Z,15.00
2022-10-18T19:11:21.859Z,16.15
2022-10-18T19:13:50.852Z,15.98
2022-10-18T19:16:28.579Z,17.10
2022-10-18T19:18:59.291Z,16.20
2022-10-18T19:21:30.475Z,16.10
2022-10-18T19:23:59.251Z,15.20
2022-10-18T19:26:33.036Z,15.93
2022-10-18T19:29:03.213Z,15.63
2022-10-18T19:31:31.703Z,15.47
2022-10-18T19:34:00.359Z,16.47
2022-10-18T19:36:29.659Z,14.40
2022-10-18T19:39:02.142Z,15.40
2022-10-18T19:41:31.933Z,16.13
2022-10-18T19:44:00.257Z,13.27
2022-10-18T19:46:29.434Z,13.00
2022-10-18T19:48:58.566Z,12.53
2022-10-18T19:51:28.295Z,13.07
2022-10-18T19:53:58.126Z,12.90
2022-10-18T19:56:27.690Z,12.77
2022-10-18T19:58:59.531Z,12.23
2022-10-18T20:01:28.717Z,12.05
2022-10-18T20:03:57.577Z,11.27
2022-10-18T20:06:25.806Z,10.13
2022-10-18T20:08:54.228Z,11.33
2022-10-18T20:11:25.102Z,11.38
2022-10-18T20:13:53.880Z,10.70
2022-10-18T20:16:28.146Z,11.23
2022-10-18T20:18:58.184Z,11.63
2022-10-18T20:21:28.234Z,12.27
2022-10-18T20:23:57.078Z,12.10
2022-10-18T20:26:26.318Z,12.03
2022-10-18T20:28:58.617Z,13.38
2022-10-18T20:31:30.263Z,12.70
2022-10-18T20:34:00.099Z,13.20
2022-10-18T20:36:30.217Z,12.73
2022-10-18T20:38:59.403Z,12.87
2022-10-18T20:41:29.896Z,10.60
2022-10-18T20:43:59.930Z,9.47
2022-10-18T20:46:32.866Z,9.53
2022-10-18T20:49:01.433Z,9.80
2022-10-18T20:51:29.778Z,9.83
2022-10-18T20:53:58.324Z,9.80
2022-10-18T20:56:27.677Z,10.00
2022-10-18T20:58:57.869Z,10.07
2022-10-18T21:01:27.614Z,10.23
2022-10-18T21:03:59.376Z,9.20
2022-10-18T21:06:29.136Z,9.17
2022-10-18T21:08:59.395Z,8.17
2022-10-18T21:11:29.122Z,8.57
2022-10-18T21:14:00.138Z,8.73
2022-10-18T21:16:28.597Z,8.40
2022-10-18T21:19:02.214Z,8.73
2022-10-18T21:21:30.465Z,9.30
2022-10-18T21:24:02.462Z,10.17
2022-10-18T21:26:33.623Z,9.47
2022-10-18T21:29:01.939Z,9.63
2022-10-18T21:31:32.201Z,10.23
2022-10-18T21:34:03.085Z,10.93
2022-10-18T21:36:33.935Z,12.20
2022-10-18T21:39:02.821Z,11.13
2022-10-18T21:41:32.736Z,12.23
2022-10-18T21:44:05.537Z,12.97
2022-10-18T21:46:36.504Z,14.23
2022-10-18T21:49:07.315Z,12.73
2022-10-18T21:51:35.727Z,12.43
2022-10-18T21:54:04.107Z,12.77
2022-10-18T21:56:34.384Z,12.67
2022-10-18T21:59:03.667Z,13.20
2022-10-18T22:01:33.762Z,13.33
2022-10-18T22:04:03.723Z,14.27
2022-10-18T22:09:08.235Z,17.27
2022-10-18T22:11:39.705Z,17.43
2022-10-18T22:14:08.157Z,17.47
2022-10-18T22:16:36.538Z,20.83
2022-10-18T22:19:06.613Z,20.23
2022-10-18T22:21:37.019Z,20.20
2022-10-18T22:24:07.754Z,22.00
2022-10-18T22:26:38.249Z,16.37
2022-10-18T22:29:08.448Z,17.33
2022-10-18T22:31:39.451Z,17.60
2022-10-18T22:34:10.098Z,16.70
2022-10-18T22:36:40.091Z,19.03
2022-10-18T22:39:08.720Z,19.17
2022-10-18T22:41:37.433Z,18.17
2022-10-18T22:44:05.946Z,17.70
2022-10-18T22:46:34.100Z,18.57
2022-10-18T22:49:02.458Z,18.23
2022-10-18T22:51:30.744Z,19.73
2022-10-18T22:54:00.409Z,19.17
2022-10-18T22:56:28.727Z,18.57
2022-10-18T22:58:56.902Z,20.47
2022-10-18T23:01:25.443Z,19.90
2022-10-18T23:03:54.799Z,18.23
2022-10-18T23:06:25.694Z,21.00
2022-10-18T23:08:55.944Z,21.27
2022-10-18T23:11:26.858Z,19.27
2022-10-18T23:13:55.619Z,19.30
2022-10-18T23:16:24.612Z,23.00
2022-10-18T23:18:54.591Z,22.47
2022-10-18T23:21:24.448Z,24.17
2022-10-18T23:23:54.092Z,23.63
2022-10-18T23:26:26.274Z,23.30
2022-10-18T23:28:55.241Z,21.53
2022-10-18T23:31:25.357Z,19.53
2022-10-18T23:33:55.733Z,20.90
2022-10-18T23:36:25.105Z,21.87
2022-10-18T23:38:53.450Z,20.90
2022-10-18T23:41:21.725Z,22.60
2022-10-18T23:43:51.573Z,25.13
2022-10-18T23:46:21.115Z,22.57
2022-10-18T23:48:50.068Z,23.03
2022-10-18T23:51:18.828Z,21.30
2022-10-18T23:53:47.431Z,22.67
2022-10-18T23:56:17.338Z,24.03
2022-10-18T23:58:46.443Z,21.97
